sensor_id;sensor_type;location;lat;lon;timestamp;temperature;humidity
47857;DHT22;33618;49.972;8.242;2023-03-23T00:01:13;14.00;91.10
47857;DHT22;33618;49.972;8.242;2023-03-23T00:03:40;14.00;91.30
47857;DHT22;33618;49.972;8.242;2023-03-23T00:06:07;14.00;91.10
47857;DHT22;33618;49.972;8.242;2023-03-23T00:08:36;14.00;91.10
47857;DHT22;33618;49.972;8.242;2023-03-23T00:11:04;14.00;90.90
47857;DHT22;33618;49.972;8.242;2023-03-23T00:13:30;14.00;91.00
47857;DHT22;33618;49.972;8.242;2023-03-23T00:15:56;14.00;91.10
47857;DHT22;33618;49.972;8.242;2023-03-23T00:18:25;14.00;91.00
47857;DHT22;33618;49.972;8.242;2023-03-23T00:45:12;14.00;91.10
47857;DHT22;33618;49.972;8.242;2023-03-23T00:47:39;14.00;91.00
47857;DHT22;33618;49.972;8.242;2023-03-23T00:50:07;14.00;90.90
47857;DHT22;33618;49.972;8.242;2023-03-23T00:52:35;14.10;90.80
47857;DHT22;33618;49.972;8.242;2023-03-23T00:55:00;14.00;91.10
47857;DHT22;33618;49.972;8.242;2023-03-23T00:57:26;14.10;90.90
47857;DHT22;33618;49.972;8.242;2023-03-23T00:59:53;14.10;91.20
47857;DHT22;33618;49.972;8.242;2023-03-23T01:02:18;14.00;90.90
47857;DHT22;33618;49.972;8.242;2023-03-23T01:04:45;14.10;90.90
47857;DHT22;33618;49.972;8.242;2023-03-23T01:07:11;14.00;91.00
47857;DHT22;33618;49.972;8.242;2023-03-23T01:09:38;14.00;91.30
47857;DHT22;33618;49.972;8.242;2023-03-23T01:12:11;14.00;91.10
47857;DHT22;33618;49.972;8.242;2023-03-23T01:14:37;14.00;91.20
47857;DHT22;33618;49.972;8.242;2023-03-23T01:17:04;14.00;91.00
47857;DHT22;33618;49.972;8.242;2023-03-23T01:19:30;14.10;91.00
47857;DHT22;33618;49.972;8.242;2023-03-23T01:21:55;14.10;91.00
47857;DHT22;33618;49.972;8.242;2023-03-23T01:24:24;14.10;91.00
47857;DHT22;33618;49.972;8.242;2023-03-23T01:26:50;14.10;90.70
47857;DHT22;33618;49.972;8.242;2023-03-23T01:29:16;14.10;90.90
47857;DHT22;33618;49.972;8.242;2023-03-23T01:31:41;14.10;91.00
47857;DHT22;33618;49.972;8.242;2023-03-23T01:34:08;14.10;91.10
47857;DHT22;33618;49.972;8.242;2023-03-23T01:36:35;14.10;91.00
47857;DHT22;33618;49.972;8.242;2023-03-23T01:39:04;14.10;91.20
47857;DHT22;33618;49.972;8.242;2023-03-23T01:41:31;14.10;91.40
47857;DHT22;33618;49.972;8.242;2023-03-23T01:45:17;14.00;91.30
47857;DHT22;33618;49.972;8.242;2023-03-23T01:46:54;14.10;91.00
47857;DHT22;33618;49.972;8.242;2023-03-23T01:49:29;14.20;90.90
47857;DHT22;33618;49.972;8.242;2023-03-23T01:52:02;14.20;90.70
47857;DHT22;33618;49.972;8.242;2023-03-23T01:54:29;14.10;90.80
47857;DHT22;33618;49.972;8.242;2023-03-23T01:57:00;14.10;91.10
47857;DHT22;33618;49.972;8.242;2023-03-23T01:59:28;14.10;91.10
47857;DHT22;33618;49.972;8.242;2023-03-23T02:01:55;14.10;91.20
47857;DHT22;33618;49.972;8.242;2023-03-23T02:04:22;14.00;91.20
47857;DHT22;33618;49.972;8.242;2023-03-23T02:06:49;14.00;91.30
47857;DHT22;33618;49.972;8.242;2023-03-23T02:09:16;14.00;91.80
47857;DHT22;33618;49.972;8.242;2023-03-23T02:11:43;13.90;91.80
47857;DHT22;33618;49.972;8.242;2023-03-23T02:14:09;14.00;91.80
47857;DHT22;33618;49.972;8.242;2023-03-23T02:35:54;13.70;96.60
47857;DHT22;33618;49.972;8.242;2023-03-23T02:38:35;13.60;96.80
47857;DHT22;33618;49.972;8.242;2023-03-23T02:41:03;13.40;98.70
47857;DHT22;33618;49.972;8.242;2023-03-23T02:43:33;13.20;99.30
47857;DHT22;33618;49.972;8.242;2023-03-23T03:14:59;13.00;99.90
47857;DHT22;33618;49.972;8.242;2023-03-23T03:17:29;13.00;99.90
47857;DHT22;33618;49.972;8.242;2023-03-23T03:19:59;13.00;99.90
47857;DHT22;33618;49.972;8.242;2023-03-23T03:22:33;13.00;99.90
47857;DHT22;33618;49.972;8.242;2023-03-23T03:25:03;12.90;99.90
47857;DHT22;33618;49.972;8.242;2023-03-23T03:27:30;12.90;99.90
47857;DHT22;33618;49.972;8.242;2023-03-23T03:29:59;12.80;99.90
47857;DHT22;33618;49.972;8.242;2023-03-23T03:32:38;12.70;99.90
47857;DHT22;33618;49.972;8.242;2023-03-23T03:35:06;12.70;99.90
47857;DHT22;33618;49.972;8.242;2023-03-23T03:37:37;12.70;99.90
47857;DHT22;33618;49.972;8.242;2023-03-23T03:40:10;12.70;99.90
47857;DHT22;33618;49.972;8.242;2023-03-23T03:42:42;12.60;99.90
47857;DHT22;33618;49.972;8.242;2023-03-23T03:45:10;12.60;99.90
47857;DHT22;33618;49.972;8.242;2023-03-23T03:47:37;12.60;99.90
47857;DHT22;33618;49.972;8.242;2023-03-23T03:50:03;12.60;99.90
47857;DHT22;33618;49.972;8.242;2023-03-23T03:52:29;12.70;99.90
47857;DHT22;33618;49.972;8.242;2023-03-23T03:54:55;12.70;99.90
47857;DHT22;33618;49.972;8.242;2023-03-23T03:57:22;12.70;99.90
47857;DHT22;33618;49.972;8.242;2023-03-23T03:59:51;12.70;99.90
47857;DHT22;33618;49.972;8.242;2023-03-23T04:02:18;12.70;99.90
47857;DHT22;33618;49.972;8.242;2023-03-23T04:04:47;12.70;99.90
47857;DHT22;33618;49.972;8.242;2023-03-23T04:07:13;12.70;99.90
47857;DHT22;33618;49.972;8.242;2023-03-23T04:09:46;12.80;99.90
47857;DHT22;33618;49.972;8.242;2023-03-23T04:12:14;12.90;99.90
47857;DHT22;33618;49.972;8.242;2023-03-23T04:14:40;12.90;99.90
47857;DHT22;33618;49.972;8.242;2023-03-23T04:17:06;13.00;99.90
47857;DHT22;33618;49.972;8.242;2023-03-23T04:19:35;13.00;99.90
47857;DHT22;33618;49.972;8.242;2023-03-23T04:22:03;13.00;99.90
47857;DHT22;33618;49.972;8.242;2023-03-23T04:24:29;13.10;99.90
47857;DHT22;33618;49.972;8.242;2023-03-23T04:26:56;13.10;99.90
47857;DHT22;33618;49.972;8.242;2023-03-23T04:29:23;13.10;99.90
47857;DHT22;33618;49.972;8.242;2023-03-23T04:31:49;13.10;99.90
47857;DHT22;33618;49.972;8.242;2023-03-23T04:34:16;13.00;99.90
47857;DHT22;33618;49.972;8.242;2023-03-23T04:36:43;13.10;99.90
47857;DHT22;33618;49.972;8.242;2023-03-23T04:39:09;13.00;99.90
47857;DHT22;33618;49.972;8.242;2023-03-23T04:41:36;13.00;99.90
47857;DHT22;33618;49.972;8.242;2023-03-23T04:44:03;13.00;99.90
47857;DHT22;33618;49.972;8.242;2023-03-23T04:46:29;13.00;99.90
47857;DHT22;33618;49.972;8.242;2023-03-23T04:48:55;12.90;99.90
47857;DHT22;33618;49.972;8.242;2023-03-23T04:51:26;13.00;99.90
47857;DHT22;33618;49.972;8.242;2023-03-23T04:53:53;13.10;99.90
47857;DHT22;33618;49.972;8.242;2023-03-23T04:56:19;13.10;99.90
47857;DHT22;33618;49.972;8.242;2023-03-23T04:58:46;13.10;99.90
47857;DHT22;33618;49.972;8.242;2023-03-23T05:01:12;13.20;99.90
47857;DHT22;33618;49.972;8.242;2023-03-23T05:03:46;13.20;99.90
47857;DHT22;33618;49.972;8.242;2023-03-23T05:06:11;13.20;99.90
47857;DHT22;33618;49.972;8.242;2023-03-23T05:08:37;13.20;99.90
47857;DHT22;33618;49.972;8.242;2023-03-23T05:11:05;13.20;99.90
47857;DHT22;33618;49.972;8.242;2023-03-23T05:13:32;13.10;99.90
47857;DHT22;33618;49.972;8.242;2023-03-23T05:15:58;13.10;99.90
47857;DHT22;33618;49.972;8.242;2023-03-23T05:18:23;13.10;99.90
47857;DHT22;33618;49.972;8.242;2023-03-23T05:20:49;13.10;99.90
47857;DHT22;33618;49.972;8.242;2023-03-23T05:23:18;13.10;99.90
47857;DHT22;33618;49.972;8.242;2023-03-23T05:25:57;13.00;99.90
47857;DHT22;33618;49.972;8.242;2023-03-23T05:28:26;13.00;99.90
47857;DHT22;33618;49.972;8.242;2023-03-23T05:30:52;13.00;99.90
47857;DHT22;33618;49.972;8.242;2023-03-23T05:33:19;13.00;99.90
47857;DHT22;33618;49.972;8.242;2023-03-23T05:35:46;13.00;99.90
47857;DHT22;33618;49.972;8.242;2023-03-23T05:38:13;12.90;99.90
47857;DHT22;33618;49.972;8.242;2023-03-23T05:40:40;12.90;99.90
47857;DHT22;33618;49.972;8.242;2023-03-23T05:43:10;12.90;99.90
47857;DHT22;33618;49.972;8.242;2023-03-23T06:09:27;12.80;99.90
47857;DHT22;33618;49.972;8.242;2023-03-23T06:11:52;12.80;99.90
47857;DHT22;33618;49.972;8.242;2023-03-23T06:14:18;12.80;99.90
47857;DHT22;33618;49.972;8.242;2023-03-23T06:16:44;12.80;99.90
47857;DHT22;33618;49.972;8.242;2023-03-23T06:19:09;12.70;99.90
47857;DHT22;33618;49.972;8.242;2023-03-23T06:21:36;12.80;99.90
47857;DHT22;33618;49.972;8.242;2023-03-23T06:24:03;12.70;99.90
47857;DHT22;33618;49.972;8.242;2023-03-23T06:26:34;12.70;99.90
47857;DHT22;33618;49.972;8.242;2023-03-23T06:29:00;12.70;99.90
47857;DHT22;33618;49.972;8.242;2023-03-23T06:31:26;12.80;99.90
47857;DHT22;33618;49.972;8.242;2023-03-23T06:33:52;12.80;99.90
47857;DHT22;33618;49.972;8.242;2023-03-23T06:36:18;12.80;99.90
47857;DHT22;33618;49.972;8.242;2023-03-23T06:38:44;12.80;99.90
47857;DHT22;33618;49.972;8.242;2023-03-23T06:41:10;12.80;99.90
47857;DHT22;33618;49.972;8.242;2023-03-23T06:43:36;12.80;99.90
47857;DHT22;33618;49.972;8.242;2023-03-23T06:46:07;12.90;99.90
47857;DHT22;33618;49.972;8.242;2023-03-23T06:48:33;12.80;99.90
47857;DHT22;33618;49.972;8.242;2023-03-23T06:50:59;12.90;99.90
47857;DHT22;33618;49.972;8.242;2023-03-23T06:53:25;12.90;99.90
47857;DHT22;33618;49.972;8.242;2023-03-23T06:55:50;12.90;99.90
47857;DHT22;33618;49.972;8.242;2023-03-23T06:58:16;12.90;99.90
47857;DHT22;33618;49.972;8.242;2023-03-23T07:00:42;12.90;99.90
47857;DHT22;33618;49.972;8.242;2023-03-23T07:03:08;13.00;99.90
47857;DHT22;33618;49.972;8.242;2023-03-23T07:05:34;13.00;99.90
47857;DHT22;33618;49.972;8.242;2023-03-23T07:08:01;13.00;99.90
47857;DHT22;33618;49.972;8.242;2023-03-23T07:10:26;13.10;99.90
47857;DHT22;33618;49.972;8.242;2023-03-23T07:12:52;13.10;99.90
47857;DHT22;33618;49.972;8.242;2023-03-23T07:15:18;13.10;99.90
47857;DHT22;33618;49.972;8.242;2023-03-23T07:17:44;13.10;99.90
47857;DHT22;33618;49.972;8.242;2023-03-23T07:20:10;13.20;99.90
47857;DHT22;33618;49.972;8.242;2023-03-23T07:22:36;13.10;99.90
47857;DHT22;33618;49.972;8.242;2023-03-23T07:25:02;13.10;99.90
47857;DHT22;33618;49.972;8.242;2023-03-23T07:27:27;13.10;99.90
47857;DHT22;33618;49.972;8.242;2023-03-23T07:29:53;13.00;99.90
47857;DHT22;33618;49.972;8.242;2023-03-23T07:32:19;13.00;99.90
47857;DHT22;33618;49.972;8.242;2023-03-23T07:34:45;13.10;99.90
47857;DHT22;33618;49.972;8.242;2023-03-23T07:37:10;13.10;99.90
47857;DHT22;33618;49.972;8.242;2023-03-23T07:39:36;13.10;99.90
47857;DHT22;33618;49.972;8.242;2023-03-23T07:42:02;13.10;99.90
47857;DHT22;33618;49.972;8.242;2023-03-23T07:44:28;13.10;99.90
47857;DHT22;33618;49.972;8.242;2023-03-23T07:46:54;13.10;99.90
47857;DHT22;33618;49.972;8.242;2023-03-23T07:49:19;13.10;99.90
47857;DHT22;33618;49.972;8.242;2023-03-23T07:51:46;13.20;99.90
47857;DHT22;33618;49.972;8.242;2023-03-23T07:54:12;13.30;99.90
47857;DHT22;33618;49.972;8.242;2023-03-23T07:56:38;13.30;99.90
47857;DHT22;33618;49.972;8.242;2023-03-23T07:59:07;13.30;99.90
47857;DHT22;33618;49.972;8.242;2023-03-23T08:01:32;13.30;99.90
47857;DHT22;33618;49.972;8.242;2023-03-23T08:03:58;13.40;99.90
47857;DHT22;33618;49.972;8.242;2023-03-23T08:06:25;13.30;99.90
47857;DHT22;33618;49.972;8.242;2023-03-23T08:08:51;13.40;99.90
47857;DHT22;33618;49.972;8.242;2023-03-23T08:11:17;13.40;99.90
47857;DHT22;33618;49.972;8.242;2023-03-23T08:13:44;13.40;99.90
47857;DHT22;33618;49.972;8.242;2023-03-23T08:16:10;13.40;99.90
47857;DHT22;33618;49.972;8.242;2023-03-23T08:18:36;13.40;99.90
47857;DHT22;33618;49.972;8.242;2023-03-23T08:21:03;13.40;99.90
47857;DHT22;33618;49.972;8.242;2023-03-23T08:23:30;13.40;99.90
47857;DHT22;33618;49.972;8.242;2023-03-23T08:25:56;13.40;99.90
47857;DHT22;33618;49.972;8.242;2023-03-23T08:28:22;13.40;99.90
47857;DHT22;33618;49.972;8.242;2023-03-23T08:30:48;13.40;99.90
47857;DHT22;33618;49.972;8.242;2023-03-23T08:33:13;13.40;99.90
47857;DHT22;33618;49.972;8.242;2023-03-23T08:35:39;13.50;99.90
47857;DHT22;33618;49.972;8.242;2023-03-23T08:38:05;13.50;99.90
47857;DHT22;33618;49.972;8.242;2023-03-23T08:40:31;13.50;99.90
47857;DHT22;33618;49.972;8.242;2023-03-23T08:42:57;13.70;99.90
47857;DHT22;33618;49.972;8.242;2023-03-23T08:45:24;13.80;99.90
47857;DHT22;33618;49.972;8.242;2023-03-23T08:47:50;13.90;99.90
47857;DHT22;33618;49.972;8.242;2023-03-23T08:50:18;13.90;99.90
47857;DHT22;33618;49.972;8.242;2023-03-23T08:52:44;14.00;99.90
47857;DHT22;33618;49.972;8.242;2023-03-23T08:55:10;14.00;99.90
47857;DHT22;33618;49.972;8.242;2023-03-23T08:57:36;14.10;99.90
47857;DHT22;33618;49.972;8.242;2023-03-23T09:00:07;14.10;99.90
47857;DHT22;33618;49.972;8.242;2023-03-23T09:02:44;14.20;99.90
47857;DHT22;33618;49.972;8.242;2023-03-23T09:05:10;14.40;99.90
47857;DHT22;33618;49.972;8.242;2023-03-23T09:07:37;14.40;99.90
47857;DHT22;33618;49.972;8.242;2023-03-23T09:10:03;14.50;99.90
47857;DHT22;33618;49.972;8.242;2023-03-23T09:12:28;14.70;99.90
47857;DHT22;33618;49.972;8.242;2023-03-23T09:14:55;14.70;99.90
47857;DHT22;33618;49.972;8.242;2023-03-23T09:17:21;14.70;99.90
47857;DHT22;33618;49.972;8.242;2023-03-23T09:19:47;14.80;99.90
47857;DHT22;33618;49.972;8.242;2023-03-23T09:22:12;14.90;99.90
47857;DHT22;33618;49.972;8.242;2023-03-23T09:24:38;15.00;98.90
47857;DHT22;33618;49.972;8.242;2023-03-23T09:27:04;15.10;99.30
47857;DHT22;33618;49.972;8.242;2023-03-23T09:29:29;15.00;98.40
47857;DHT22;33618;49.972;8.242;2023-03-23T09:31:55;15.00;97.70
47857;DHT22;33618;49.972;8.242;2023-03-23T09:34:21;15.00;97.90
47857;DHT22;33618;49.972;8.242;2023-03-23T09:36:47;15.00;98.60
47857;DHT22;33618;49.972;8.242;2023-03-23T09:39:13;15.10;98.70
47857;DHT22;33618;49.972;8.242;2023-03-23T09:41:58;15.00;99.90
47857;DHT22;33618;49.972;8.242;2023-03-23T09:44:30;15.00;99.90
47857;DHT22;33618;49.972;8.242;2023-03-23T09:47:16;14.70;99.90
47857;DHT22;33618;49.972;8.242;2023-03-23T09:49:45;14.50;99.90
47857;DHT22;33618;49.972;8.242;2023-03-23T09:52:16;14.30;99.90
47857;DHT22;33618;49.972;8.242;2023-03-23T09:54:48;14.20;99.90
47857;DHT22;33618;49.972;8.242;2023-03-23T10:00:02;13.90;99.90
47857;DHT22;33618;49.972;8.242;2023-03-23T10:02:36;13.90;99.90
47857;DHT22;33618;49.972;8.242;2023-03-23T10:05:47;13.80;99.90
47857;DHT22;33618;49.972;8.242;2023-03-23T10:07:53;13.80;99.90
47857;DHT22;33618;49.972;8.242;2023-03-23T10:10:19;13.90;99.90
47857;DHT22;33618;49.972;8.242;2023-03-23T10:12:48;13.90;99.90
47857;DHT22;33618;49.972;8.242;2023-03-23T10:15:17;13.90;99.90
47857;DHT22;33618;49.972;8.242;2023-03-23T10:17:49;13.90;99.90
47857;DHT22;33618;49.972;8.242;2023-03-23T10:20:37;14.10;99.90
47857;DHT22;33618;49.972;8.242;2023-03-23T10:23:10;14.10;99.90
47857;DHT22;33618;49.972;8.242;2023-03-23T10:25:41;14.10;99.90
47857;DHT22;33618;49.972;8.242;2023-03-23T10:28:11;14.20;99.90
47857;DHT22;33618;49.972;8.242;2023-03-23T10:35:43;14.10;99.90
47857;DHT22;33618;49.972;8.242;2023-03-23T10:38:12;14.00;99.90
47857;DHT22;33618;49.972;8.242;2023-03-23T10:40:44;14.10;99.90
47857;DHT22;33618;49.972;8.242;2023-03-23T10:43:10;14.00;99.90
47857;DHT22;33618;49.972;8.242;2023-03-23T10:45:36;14.00;99.90
47857;DHT22;33618;49.972;8.242;2023-03-23T10:50:31;14.10;99.90
47857;DHT22;33618;49.972;8.242;2023-03-23T10:52:58;14.20;99.90
47857;DHT22;33618;49.972;8.242;2023-03-23T10:55:34;14.20;99.90
47857;DHT22;33618;49.972;8.242;2023-03-23T10:58:05;14.20;99.90
47857;DHT22;33618;49.972;8.242;2023-03-23T11:00:31;14.40;99.90
47857;DHT22;33618;49.972;8.242;2023-03-23T11:05:25;14.80;99.90
47857;DHT22;33618;49.972;8.242;2023-03-23T11:07:57;15.00;99.90
47857;DHT22;33618;49.972;8.242;2023-03-23T11:10:26;15.10;99.90
47857;DHT22;33618;49.972;8.242;2023-03-23T11:12:52;15.10;99.90
47857;DHT22;33618;49.972;8.242;2023-03-23T11:17:55;15.30;99.90
47857;DHT22;33618;49.972;8.242;2023-03-23T11:20:22;15.30;99.90
47857;DHT22;33618;49.972;8.242;2023-03-23T11:22:47;15.40;99.90
47857;DHT22;33618;49.972;8.242;2023-03-23T11:25:13;15.50;99.90
47857;DHT22;33618;49.972;8.242;2023-03-23T11:27:40;15.30;99.90
47857;DHT22;33618;49.972;8.242;2023-03-23T11:32:34;15.10;99.90
47857;DHT22;33618;49.972;8.242;2023-03-23T11:35:02;15.00;99.90
47857;DHT22;33618;49.972;8.242;2023-03-23T11:37:34;15.10;99.90
47857;DHT22;33618;49.972;8.242;2023-03-23T11:47:41;15.70;99.90
47857;DHT22;33618;49.972;8.242;2023-03-23T11:50:14;15.80;99.90
47857;DHT22;33618;49.972;8.242;2023-03-23T11:55:23;15.20;99.90
47857;DHT22;33618;49.972;8.242;2023-03-23T11:57:51;15.20;99.90
47857;DHT22;33618;49.972;8.242;2023-03-23T12:00:18;15.20;99.90
47857;DHT22;33618;49.972;8.242;2023-03-23T12:02:57;15.30;99.90
47857;DHT22;33618;49.972;8.242;2023-03-23T12:10:40;15.10;99.90
47857;DHT22;33618;49.972;8.242;2023-03-23T12:18:38;15.30;99.90
47857;DHT22;33618;49.972;8.242;2023-03-23T12:21:22;15.40;99.90
47857;DHT22;33618;49.972;8.242;2023-03-23T12:28:50;15.50;99.90
47857;DHT22;33618;49.972;8.242;2023-03-23T12:31:25;15.50;99.90
47857;DHT22;33618;49.972;8.242;2023-03-23T12:36:41;15.60;99.90
47857;DHT22;33618;49.972;8.242;2023-03-23T12:39:14;15.60;99.90
47857;DHT22;33618;49.972;8.242;2023-03-23T12:42:04;15.60;99.90
47857;DHT22;33618;49.972;8.242;2023-03-23T12:44:46;15.50;99.90
47857;DHT22;33618;49.972;8.242;2023-03-23T13:24:12;16.00;99.60
47857;DHT22;33618;49.972;8.242;2023-03-23T13:26:39;16.00;99.80
47857;DHT22;33618;49.972;8.242;2023-03-23T13:36:31;15.60;99.90
47857;DHT22;33618;49.972;8.242;2023-03-23T13:39:20;15.30;99.90
47857;DHT22;33618;49.972;8.242;2023-03-23T13:49:49;15.20;99.90
47857;DHT22;33618;49.972;8.242;2023-03-23T13:54:49;15.20;99.90
47857;DHT22;33618;49.972;8.242;2023-03-23T13:57:35;15.30;99.90
47857;DHT22;33618;49.972;8.242;2023-03-23T14:00:24;15.40;99.90
47857;DHT22;33618;49.972;8.242;2023-03-23T14:02:49;15.60;99.90
47857;DHT22;33618;49.972;8.242;2023-03-23T14:10:48;15.70;98.30
47857;DHT22;33618;49.972;8.242;2023-03-23T14:15:44;15.50;98.40
47857;DHT22;33618;49.972;8.242;2023-03-23T14:18:14;15.30;98.90
47857;DHT22;33618;49.972;8.242;2023-03-23T14:20:41;15.20;99.60
47857;DHT22;33618;49.972;8.242;2023-03-23T14:23:18;15.10;99.90
47857;DHT22;33618;49.972;8.242;2023-03-23T14:25:44;15.10;99.90
47857;DHT22;33618;49.972;8.242;2023-03-23T14:28:16;15.00;99.90
47857;DHT22;33618;49.972;8.242;2023-03-23T14:30:42;14.90;99.90
47857;DHT22;33618;49.972;8.242;2023-03-23T14:33:09;15.00;99.90
47857;DHT22;33618;49.972;8.242;2023-03-23T14:35:37;15.00;99.90
47857;DHT22;33618;49.972;8.242;2023-03-23T14:38:04;15.00;99.90
47857;DHT22;33618;49.972;8.242;2023-03-23T14:40:36;14.90;99.90
47857;DHT22;33618;49.972;8.242;2023-03-23T14:43:01;14.90;99.90
47857;DHT22;33618;49.972;8.242;2023-03-23T14:45:28;14.90;99.90
47857;DHT22;33618;49.972;8.242;2023-03-23T14:47:57;14.90;99.90
47857;DHT22;33618;49.972;8.242;2023-03-23T14:50:26;14.90;99.90
47857;DHT22;33618;49.972;8.242;2023-03-23T14:52:59;14.90;99.90
47857;DHT22;33618;49.972;8.242;2023-03-23T14:55:25;14.90;99.90
47857;DHT22;33618;49.972;8.242;2023-03-23T14:57:54;15.10;99.90
47857;DHT22;33618;49.972;8.242;2023-03-23T15:00:21;15.30;99.90
47857;DHT22;33618;49.972;8.242;2023-03-23T15:02:49;15.40;99.90
47857;DHT22;33618;49.972;8.242;2023-03-23T15:05:27;15.40;99.90
47857;DHT22;33618;49.972;8.242;2023-03-23T15:07:55;15.40;99.90
47857;DHT22;33618;49.972;8.242;2023-03-23T15:10:22;15.30;99.90
47857;DHT22;33618;49.972;8.242;2023-03-23T15:12:48;15.20;99.90
47857;DHT22;33618;49.972;8.242;2023-03-23T15:15:22;15.20;99.90
47857;DHT22;33618;49.972;8.242;2023-03-23T15:17:48;15.10;99.90
47857;DHT22;33618;49.972;8.242;2023-03-23T15:22:52;15.10;99.90
47857;DHT22;33618;49.972;8.242;2023-03-23T15:25:19;15.20;99.90
47857;DHT22;33618;49.972;8.242;2023-03-23T15:27:50;15.10;99.90
47857;DHT22;33618;49.972;8.242;2023-03-23T15:32:45;15.20;99.90
47857;DHT22;33618;49.972;8.242;2023-03-23T15:35:15;15.20;99.90
47857;DHT22;33618;49.972;8.242;2023-03-23T15:38:00;15.20;99.90
47857;DHT22;33618;49.972;8.242;2023-03-23T15:40:27;15.10;99.90
47857;DHT22;33618;49.972;8.242;2023-03-23T15:43:17;15.20;99.90
47857;DHT22;33618;49.972;8.242;2023-03-23T15:45:51;15.20;99.90
47857;DHT22;33618;49.972;8.242;2023-03-23T15:48:17;15.20;99.90
47857;DHT22;33618;49.972;8.242;2023-03-23T15:50:43;15.10;99.90
47857;DHT22;33618;49.972;8.242;2023-03-23T15:53:18;15.00;99.90
47857;DHT22;33618;49.972;8.242;2023-03-23T15:55:44;14.90;99.90
47857;DHT22;33618;49.972;8.242;2023-03-23T15:58:11;14.80;99.90
47857;DHT22;33618;49.972;8.242;2023-03-23T16:00:38;14.80;99.90
47857;DHT22;33618;49.972;8.242;2023-03-23T16:03:07;14.70;99.90
47857;DHT22;33618;49.972;8.242;2023-03-23T16:05:35;14.60;99.90
47857;DHT22;33618;49.972;8.242;2023-03-23T16:08:01;14.60;99.90
47857;DHT22;33618;49.972;8.242;2023-03-23T16:10:28;14.50;99.90
47857;DHT22;33618;49.972;8.242;2023-03-23T16:12:55;14.40;99.90
47857;DHT22;33618;49.972;8.242;2023-03-23T16:15:22;14.50;99.90
47857;DHT22;33618;49.972;8.242;2023-03-23T16:17:49;14.50;99.90
47857;DHT22;33618;49.972;8.242;2023-03-23T16:20:17;14.40;99.90
47857;DHT22;33618;49.972;8.242;2023-03-23T16:22:45;14.40;99.90
47857;DHT22;33618;49.972;8.242;2023-03-23T16:25:13;14.40;99.90
47857;DHT22;33618;49.972;8.242;2023-03-23T16:27:40;14.40;99.90
47857;DHT22;33618;49.972;8.242;2023-03-23T16:30:17;14.40;99.90
47857;DHT22;33618;49.972;8.242;2023-03-23T16:32:44;14.40;99.90
47857;DHT22;33618;49.972;8.242;2023-03-23T16:35:13;14.40;99.90
47857;DHT22;33618;49.972;8.242;2023-03-23T16:37:46;14.30;99.90
47857;DHT22;33618;49.972;8.242;2023-03-23T16:40:15;14.20;99.90
47857;DHT22;33618;49.972;8.242;2023-03-23T16:42:42;14.20;99.90
47857;DHT22;33618;49.972;8.242;2023-03-23T16:45:09;14.20;99.90
47857;DHT22;33618;49.972;8.242;2023-03-23T16:47:36;14.20;99.90
47857;DHT22;33618;49.972;8.242;2023-03-23T16:50:04;14.10;99.90
47857;DHT22;33618;49.972;8.242;2023-03-23T16:52:32;14.10;99.90
47857;DHT22;33618;49.972;8.242;2023-03-23T16:54:59;14.10;99.90
47857;DHT22;33618;49.972;8.242;2023-03-23T16:57:26;14.10;99.90
47857;DHT22;33618;49.972;8.242;2023-03-23T16:59:53;14.10;99.90
47857;DHT22;33618;49.972;8.242;2023-03-23T17:02:20;14.10;99.90
47857;DHT22;33618;49.972;8.242;2023-03-23T17:04:46;14.10;99.90
47857;DHT22;33618;49.972;8.242;2023-03-23T17:07:13;14.10;99.90
47857;DHT22;33618;49.972;8.242;2023-03-23T17:09:40;14.10;99.90
47857;DHT22;33618;49.972;8.242;2023-03-23T17:12:08;14.10;99.90
47857;DHT22;33618;49.972;8.242;2023-03-23T17:14:35;14.00;99.90
47857;DHT22;33618;49.972;8.242;2023-03-23T17:17:01;14.10;99.90
47857;DHT22;33618;49.972;8.242;2023-03-23T17:19:28;14.00;99.90
47857;DHT22;33618;49.972;8.242;2023-03-23T17:21:55;14.00;99.90
47857;DHT22;33618;49.972;8.242;2023-03-23T17:24:22;14.00;99.90
47857;DHT22;33618;49.972;8.242;2023-03-23T17:26:49;14.00;99.90
47857;DHT22;33618;49.972;8.242;2023-03-23T17:29:16;14.00;99.90
47857;DHT22;33618;49.972;8.242;2023-03-23T17:31:43;13.90;99.90
47857;DHT22;33618;49.972;8.242;2023-03-23T17:34:09;13.90;99.90
47857;DHT22;33618;49.972;8.242;2023-03-23T17:36:36;13.80;99.90
47857;DHT22;33618;49.972;8.242;2023-03-23T17:39:03;13.70;99.90
47857;DHT22;33618;49.972;8.242;2023-03-23T17:41:30;13.70;99.90
47857;DHT22;33618;49.972;8.242;2023-03-23T17:43:57;13.70;99.90
47857;DHT22;33618;49.972;8.242;2023-03-23T17:46:24;13.60;99.90
47857;DHT22;33618;49.972;8.242;2023-03-23T17:48:51;13.60;99.90
47857;DHT22;33618;49.972;8.242;2023-03-23T17:51:18;13.50;99.90
47857;DHT22;33618;49.972;8.242;2023-03-23T17:53:45;13.50;99.90
47857;DHT22;33618;49.972;8.242;2023-03-23T17:56:12;13.40;99.90
47857;DHT22;33618;49.972;8.242;2023-03-23T17:58:39;13.40;99.90
47857;DHT22;33618;49.972;8.242;2023-03-23T18:01:06;13.30;99.90
47857;DHT22;33618;49.972;8.242;2023-03-23T18:03:33;13.20;99.90
47857;DHT22;33618;49.972;8.242;2023-03-23T18:06:02;13.20;99.90
47857;DHT22;33618;49.972;8.242;2023-03-23T18:08:29;13.20;99.90
47857;DHT22;33618;49.972;8.242;2023-03-23T18:10:56;13.10;99.90
47857;DHT22;33618;49.972;8.242;2023-03-23T18:13:24;13.00;99.90
47857;DHT22;33618;49.972;8.242;2023-03-23T18:15:54;13.00;99.90
47857;DHT22;33618;49.972;8.242;2023-03-23T18:18:21;13.00;99.90
47857;DHT22;33618;49.972;8.242;2023-03-23T18:21:02;13.00;99.90
47857;DHT22;33618;49.972;8.242;2023-03-23T18:23:30;12.90;99.90
47857;DHT22;33618;49.972;8.242;2023-03-23T18:26:08;12.90;99.90
47857;DHT22;33618;49.972;8.242;2023-03-23T18:28:36;12.90;99.90
47857;DHT22;33618;49.972;8.242;2023-03-23T18:31:07;12.80;99.90
47857;DHT22;33618;49.972;8.242;2023-03-23T18:33:34;12.80;99.90
47857;DHT22;33618;49.972;8.242;2023-03-23T18:36:04;12.80;99.90
47857;DHT22;33618;49.972;8.242;2023-03-23T18:38:32;12.80;99.90
47857;DHT22;33618;49.972;8.242;2023-03-23T18:40:59;12.80;99.90
47857;DHT22;33618;49.972;8.242;2023-03-23T18:43:26;12.70;99.90
47857;DHT22;33618;49.972;8.242;2023-03-23T18:45:54;12.70;99.90
47857;DHT22;33618;49.972;8.242;2023-03-23T18:48:21;12.70;99.90
47857;DHT22;33618;49.972;8.242;2023-03-23T18:50:49;12.70;99.90
47857;DHT22;33618;49.972;8.242;2023-03-23T18:53:17;12.70;99.90
47857;DHT22;33618;49.972;8.242;2023-03-23T18:55:44;12.80;99.90
47857;DHT22;33618;49.972;8.242;2023-03-23T18:58:12;12.80;99.90
47857;DHT22;33618;49.972;8.242;2023-03-23T19:00:39;12.80;99.90
47857;DHT22;33618;49.972;8.242;2023-03-23T19:03:07;12.90;99.90
47857;DHT22;33618;49.972;8.242;2023-03-23T19:05:36;12.90;99.90
47857;DHT22;33618;49.972;8.242;2023-03-23T19:08:04;12.90;99.90